EICK - Cork Airport
Distance from station: E 5mi, 14km
Updated: 02/20/2018 6:30pm
Few Clouds
Few Clouds
 Wind from NNW
Wind: NNW 10 mph , 17 km/h
Temperature: 37°F , 3°C
Wind Chill: 30°F , -1°C
Dew Point: 34°F , 1°C
Humidity: 87%
Barometer: 30.39 inHg , 1029 hPa
Clouds: Few Clouds
Visibility: 6 miles , 10 km
Cloud details: Few Clouds 2700 ft
2018/02/21 02:30 EICK 210230Z 34009KT 9999 FEW027 03/01 Q1029 NOSIG